sensor_id;sensor_type;location;lat;lon;timestamp;P1;durP1;ratioP1;P2;durP2;ratioP2
35919;SDS011;36160;53.370;-6.196;2022-12-08T00:00:47;13.05;;;6.63;;
35919;SDS011;36160;53.370;-6.196;2022-12-08T00:03:13;20.33;;;6.97;;
35919;SDS011;36160;53.370;-6.196;2022-12-08T00:05:45;18.58;;;6.65;;
35919;SDS011;36160;53.370;-6.196;2022-12-08T00:08:31;14.35;;;7.82;;
35919;SDS011;36160;53.370;-6.196;2022-12-08T00:11:16;12.98;;;6.05;;
35919;SDS011;36160;53.370;-6.196;2022-12-08T00:13:43;13.73;;;5.63;;
35919;SDS011;36160;53.370;-6.196;2022-12-08T00:16:10;10.75;;;4.85;;
35919;SDS011;36160;53.370;-6.196;2022-12-08T00:18:36;16.25;;;6.05;;
35919;SDS011;36160;53.370;-6.196;2022-12-08T00:21:02;11.27;;;7.32;;
35919;SDS011;36160;53.370;-6.196;2022-12-08T00:23:28;27.00;;;11.45;;
35919;SDS011;36160;53.370;-6.196;2022-12-08T00:25:53;14.85;;;7.80;;
35919;SDS011;36160;53.370;-6.196;2022-12-08T00:28:19;11.18;;;7.10;;
35919;SDS011;36160;53.370;-6.196;2022-12-08T00:30:45;14.80;;;9.95;;
35919;SDS011;36160;53.370;-6.196;2022-12-08T00:33:10;17.27;;;7.82;;
35919;SDS011;36160;53.370;-6.196;2022-12-08T00:35:36;12.30;;;7.00;;
35919;SDS011;36160;53.370;-6.196;2022-12-08T00:38:02;10.32;;;5.38;;
35919;SDS011;36160;53.370;-6.196;2022-12-08T00:40:28;12.85;;;6.00;;
35919;SDS011;36160;53.370;-6.196;2022-12-08T00:42:54;11.68;;;4.97;;
35919;SDS011;36160;53.370;-6.196;2022-12-08T00:45:19;13.45;;;5.43;;
35919;SDS011;36160;53.370;-6.196;2022-12-08T00:47:45;13.18;;;6.97;;
35919;SDS011;36160;53.370;-6.196;2022-12-08T00:50:11;14.68;;;8.15;;
35919;SDS011;36160;53.370;-6.196;2022-12-08T00:52:37;14.35;;;7.32;;
35919;SDS011;36160;53.370;-6.196;2022-12-08T00:55:03;13.32;;;6.65;;
35919;SDS011;36160;53.370;-6.196;2022-12-08T00:57:29;30.00;;;7.90;;
35919;SDS011;36160;53.370;-6.196;2022-12-08T00:59:56;12.32;;;5.65;;
35919;SDS011;36160;53.370;-6.196;2022-12-08T01:02:22;9.88;;;4.88;;
35919;SDS011;36160;53.370;-6.196;2022-12-08T01:04:48;10.27;;;5.20;;
35919;SDS011;36160;53.370;-6.196;2022-12-08T01:07:14;9.63;;;5.18;;
35919;SDS011;36160;53.370;-6.196;2022-12-08T01:09:40;14.25;;;4.75;;
35919;SDS011;36160;53.370;-6.196;2022-12-08T01:12:05;14.40;;;4.38;;
35919;SDS011;36160;53.370;-6.196;2022-12-08T01:14:31;18.70;;;5.40;;
35919;SDS011;36160;53.370;-6.196;2022-12-08T01:16:57;12.77;;;4.20;;
35919;SDS011;36160;53.370;-6.196;2022-12-08T01:19:23;10.95;;;5.35;;
35919;SDS011;36160;53.370;-6.196;2022-12-08T01:21:48;9.32;;;4.47;;
35919;SDS011;36160;53.370;-6.196;2022-12-08T01:24:15;7.15;;;4.20;;
35919;SDS011;36160;53.370;-6.196;2022-12-08T01:26:42;10.43;;;4.40;;
35919;SDS011;36160;53.370;-6.196;2022-12-08T01:29:09;11.43;;;5.53;;
35919;SDS011;36160;53.370;-6.196;2022-12-08T01:31:35;7.05;;;4.68;;
35919;SDS011;36160;53.370;-6.196;2022-12-08T01:34:01;11.13;;;4.25;;
35919;SDS011;36160;53.370;-6.196;2022-12-08T01:36:28;12.25;;;4.50;;
35919;SDS011;36160;53.370;-6.196;2022-12-08T01:38:56;11.80;;;4.68;;
35919;SDS011;36160;53.370;-6.196;2022-12-08T01:41:24;9.43;;;4.75;;
35919;SDS011;36160;53.370;-6.196;2022-12-08T01:46:20;10.48;;;4.80;;
35919;SDS011;36160;53.370;-6.196;2022-12-08T01:48:46;10.27;;;4.72;;
35919;SDS011;36160;53.370;-6.196;2022-12-08T01:51:12;10.35;;;5.13;;
35919;SDS011;36160;53.370;-6.196;2022-12-08T01:53:38;8.57;;;4.68;;
35919;SDS011;36160;53.370;-6.196;2022-12-08T01:56:05;12.07;;;4.65;;
35919;SDS011;36160;53.370;-6.196;2022-12-08T01:58:36;9.23;;;4.97;;
35919;SDS011;36160;53.370;-6.196;2022-12-08T02:01:08;10.57;;;4.65;;
35919;SDS011;36160;53.370;-6.196;2022-12-08T02:03:42;11.68;;;4.57;;
35919;SDS011;36160;53.370;-6.196;2022-12-08T02:06:40;10.73;;;5.68;;
35919;SDS011;36160;53.370;-6.196;2022-12-08T02:09:08;11.32;;;5.35;;
35919;SDS011;36160;53.370;-6.196;2022-12-08T02:11:34;9.73;;;4.90;;
35919;SDS011;36160;53.370;-6.196;2022-12-08T02:14:00;9.02;;;5.68;;
35919;SDS011;36160;53.370;-6.196;2022-12-08T02:22:13;8.35;;;4.40;;
35919;SDS011;36160;53.370;-6.196;2022-12-08T02:30:24;10.38;;;4.15;;
35919;SDS011;36160;53.370;-6.196;2022-12-08T02:39:10;9.82;;;3.97;;
35919;SDS011;36160;53.370;-6.196;2022-12-08T02:44:35;11.85;;;4.22;;
35919;SDS011;36160;53.370;-6.196;2022-12-08T02:47:15;8.57;;;4.30;;
35919;SDS011;36160;53.370;-6.196;2022-12-08T02:49:43;11.82;;;4.88;;
35919;SDS011;36160;53.370;-6.196;2022-12-08T02:54:49;13.98;;;5.47;;
35919;SDS011;36160;53.370;-6.196;2022-12-08T03:00:26;11.65;;;5.93;;
35919;SDS011;36160;53.370;-6.196;2022-12-08T03:08:59;8.30;;;3.63;;
35919;SDS011;36160;53.370;-6.196;2022-12-08T03:11:35;12.13;;;3.80;;
35919;SDS011;36160;53.370;-6.196;2022-12-08T03:14:06;10.70;;;3.72;;
35919;SDS011;36160;53.370;-6.196;2022-12-08T03:16:35;8.45;;;4.15;;
35919;SDS011;36160;53.370;-6.196;2022-12-08T03:19:12;10.50;;;3.30;;
35919;SDS011;36160;53.370;-6.196;2022-12-08T03:21:52;7.07;;;3.30;;
35919;SDS011;36160;53.370;-6.196;2022-12-08T03:24:26;13.15;;;3.92;;
35919;SDS011;36160;53.370;-6.196;2022-12-08T03:27:14;8.45;;;4.50;;
35919;SDS011;36160;53.370;-6.196;2022-12-08T03:29:47;8.70;;;3.78;;
35919;SDS011;36160;53.370;-6.196;2022-12-08T03:35:16;9.70;;;4.13;;
35919;SDS011;36160;53.370;-6.196;2022-12-08T03:37:46;11.80;;;3.95;;
35919;SDS011;36160;53.370;-6.196;2022-12-08T03:40:14;8.57;;;4.32;;
35919;SDS011;36160;53.370;-6.196;2022-12-08T03:42:42;14.25;;;4.45;;
35919;SDS011;36160;53.370;-6.196;2022-12-08T03:45:07;7.75;;;3.90;;
35919;SDS011;36160;53.370;-6.196;2022-12-08T03:47:34;7.22;;;3.60;;
35919;SDS011;36160;53.370;-6.196;2022-12-08T03:50:01;6.93;;;4.20;;
35919;SDS011;36160;53.370;-6.196;2022-12-08T03:52:27;11.00;;;5.40;;
35919;SDS011;36160;53.370;-6.196;2022-12-08T03:54:52;7.07;;;4.00;;
35919;SDS011;36160;53.370;-6.196;2022-12-08T03:57:18;11.55;;;4.28;;
35919;SDS011;36160;53.370;-6.196;2022-12-08T03:59:44;5.32;;;3.65;;
35919;SDS011;36160;53.370;-6.196;2022-12-08T04:02:09;10.25;;;4.88;;
35919;SDS011;36160;53.370;-6.196;2022-12-08T04:04:35;9.38;;;4.85;;
35919;SDS011;36160;53.370;-6.196;2022-12-08T04:07:00;12.02;;;5.03;;
35919;SDS011;36160;53.370;-6.196;2022-12-08T04:09:26;15.38;;;5.30;;
35919;SDS011;36160;53.370;-6.196;2022-12-08T04:11:52;13.88;;;4.88;;
35919;SDS011;36160;53.370;-6.196;2022-12-08T04:14:17;15.35;;;5.72;;
35919;SDS011;36160;53.370;-6.196;2022-12-08T04:16:43;9.13;;;5.07;;
35919;SDS011;36160;53.370;-6.196;2022-12-08T04:19:09;21.58;;;7.30;;
35919;SDS011;36160;53.370;-6.196;2022-12-08T04:21:35;11.25;;;5.68;;
35919;SDS011;36160;53.370;-6.196;2022-12-08T04:24:00;13.77;;;5.95;;
35919;SDS011;36160;53.370;-6.196;2022-12-08T04:26:26;12.65;;;6.05;;
35919;SDS011;36160;53.370;-6.196;2022-12-08T04:28:52;14.45;;;6.70;;
35919;SDS011;36160;53.370;-6.196;2022-12-08T04:31:18;16.23;;;6.93;;
35919;SDS011;36160;53.370;-6.196;2022-12-08T04:33:43;12.38;;;7.40;;
35919;SDS011;36160;53.370;-6.196;2022-12-08T04:36:09;18.77;;;7.35;;
35919;SDS011;36160;53.370;-6.196;2022-12-08T04:38:35;13.05;;;5.80;;
35919;SDS011;36160;53.370;-6.196;2022-12-08T04:41:01;14.52;;;7.13;;
35919;SDS011;36160;53.370;-6.196;2022-12-08T04:43:27;15.50;;;7.13;;
35919;SDS011;36160;53.370;-6.196;2022-12-08T04:45:52;18.10;;;7.45;;
35919;SDS011;36160;53.370;-6.196;2022-12-08T04:48:18;13.23;;;7.25;;
35919;SDS011;36160;53.370;-6.196;2022-12-08T04:50:44;12.10;;;6.28;;
35919;SDS011;36160;53.370;-6.196;2022-12-08T04:53:10;13.90;;;6.78;;
35919;SDS011;36160;53.370;-6.196;2022-12-08T04:55:37;10.13;;;5.88;;
35919;SDS011;36160;53.370;-6.196;2022-12-08T04:58:05;11.55;;;7.22;;
35919;SDS011;36160;53.370;-6.196;2022-12-08T05:00:30;14.05;;;7.40;;
35919;SDS011;36160;53.370;-6.196;2022-12-08T05:02:57;13.52;;;6.55;;
35919;SDS011;36160;53.370;-6.196;2022-12-08T05:05:22;19.30;;;7.22;;
35919;SDS011;36160;53.370;-6.196;2022-12-08T05:07:48;15.55;;;7.80;;
35919;SDS011;36160;53.370;-6.196;2022-12-08T05:10:14;12.77;;;6.72;;
35919;SDS011;36160;53.370;-6.196;2022-12-08T05:12:39;16.52;;;7.60;;
35919;SDS011;36160;53.370;-6.196;2022-12-08T05:15:05;16.30;;;6.60;;
35919;SDS011;36160;53.370;-6.196;2022-12-08T05:17:31;14.23;;;6.78;;
35919;SDS011;36160;53.370;-6.196;2022-12-08T05:19:57;10.23;;;6.13;;
35919;SDS011;36160;53.370;-6.196;2022-12-08T05:22:22;10.93;;;6.57;;
35919;SDS011;36160;53.370;-6.196;2022-12-08T05:24:48;14.98;;;7.95;;
35919;SDS011;36160;53.370;-6.196;2022-12-08T05:27:14;16.13;;;7.40;;
35919;SDS011;36160;53.370;-6.196;2022-12-08T05:29:40;11.98;;;7.03;;
35919;SDS011;36160;53.370;-6.196;2022-12-08T05:32:06;11.57;;;5.88;;
35919;SDS011;36160;53.370;-6.196;2022-12-08T05:34:32;16.20;;;6.40;;
35919;SDS011;36160;53.370;-6.196;2022-12-08T05:36:58;16.00;;;6.78;;
35919;SDS011;36160;53.370;-6.196;2022-12-08T05:39:23;13.15;;;7.22;;
35919;SDS011;36160;53.370;-6.196;2022-12-08T05:41:49;14.73;;;7.13;;
35919;SDS011;36160;53.370;-6.196;2022-12-08T05:44:14;14.23;;;7.68;;
35919;SDS011;36160;53.370;-6.196;2022-12-08T05:46:40;10.48;;;7.15;;
35919;SDS011;36160;53.370;-6.196;2022-12-08T05:49:06;26.30;;;8.57;;
35919;SDS011;36160;53.370;-6.196;2022-12-08T05:51:31;14.30;;;7.38;;
35919;SDS011;36160;53.370;-6.196;2022-12-08T05:53:57;12.07;;;7.32;;
35919;SDS011;36160;53.370;-6.196;2022-12-08T05:56:23;17.38;;;8.10;;
35919;SDS011;36160;53.370;-6.196;2022-12-08T05:58:48;16.58;;;7.13;;
35919;SDS011;36160;53.370;-6.196;2022-12-08T06:01:20;12.02;;;7.10;;
35919;SDS011;36160;53.370;-6.196;2022-12-08T06:03:46;19.60;;;8.77;;
35919;SDS011;36160;53.370;-6.196;2022-12-08T06:06:12;13.52;;;7.78;;
35919;SDS011;36160;53.370;-6.196;2022-12-08T06:08:37;16.30;;;8.93;;
35919;SDS011;36160;53.370;-6.196;2022-12-08T06:11:03;20.90;;;9.35;;
35919;SDS011;36160;53.370;-6.196;2022-12-08T06:13:29;15.70;;;8.20;;
35919;SDS011;36160;53.370;-6.196;2022-12-08T06:15:54;12.38;;;7.70;;
35919;SDS011;36160;53.370;-6.196;2022-12-08T06:18:20;13.20;;;7.28;;
35919;SDS011;36160;53.370;-6.196;2022-12-08T06:20:45;15.63;;;8.68;;
35919;SDS011;36160;53.370;-6.196;2022-12-08T06:23:11;24.35;;;8.50;;
35919;SDS011;36160;53.370;-6.196;2022-12-08T06:25:37;16.15;;;9.02;;
35919;SDS011;36160;53.370;-6.196;2022-12-08T06:28:03;16.80;;;9.73;;
35919;SDS011;36160;53.370;-6.196;2022-12-08T06:30:31;20.67;;;10.20;;
35919;SDS011;36160;53.370;-6.196;2022-12-08T06:32:56;16.80;;;9.27;;
35919;SDS011;36160;53.370;-6.196;2022-12-08T06:35:22;15.88;;;7.93;;
35919;SDS011;36160;53.370;-6.196;2022-12-08T06:37:48;15.98;;;7.53;;
35919;SDS011;36160;53.370;-6.196;2022-12-08T06:40:15;17.70;;;7.93;;
35919;SDS011;36160;53.370;-6.196;2022-12-08T06:42:42;15.75;;;7.70;;
35919;SDS011;36160;53.370;-6.196;2022-12-08T06:45:09;22.55;;;9.13;;
35919;SDS011;36160;53.370;-6.196;2022-12-08T06:47:36;15.50;;;8.60;;
35919;SDS011;36160;53.370;-6.196;2022-12-08T06:50:02;20.10;;;8.43;;
35919;SDS011;36160;53.370;-6.196;2022-12-08T06:52:28;15.73;;;7.97;;
35919;SDS011;36160;53.370;-6.196;2022-12-08T06:54:53;16.00;;;7.63;;
35919;SDS011;36160;53.370;-6.196;2022-12-08T06:57:19;12.00;;;7.65;;
35919;SDS011;36160;53.370;-6.196;2022-12-08T06:59:45;15.15;;;7.63;;
35919;SDS011;36160;53.370;-6.196;2022-12-08T07:02:11;18.00;;;8.02;;
35919;SDS011;36160;53.370;-6.196;2022-12-08T07:04:36;15.80;;;7.18;;
35919;SDS011;36160;53.370;-6.196;2022-12-08T07:07:02;15.40;;;7.57;;
35919;SDS011;36160;53.370;-6.196;2022-12-08T07:09:28;13.23;;;6.88;;
35919;SDS011;36160;53.370;-6.196;2022-12-08T07:11:54;12.05;;;7.70;;
35919;SDS011;36160;53.370;-6.196;2022-12-08T07:14:19;17.33;;;7.57;;
35919;SDS011;36160;53.370;-6.196;2022-12-08T07:16:49;16.65;;;8.55;;
35919;SDS011;36160;53.370;-6.196;2022-12-08T07:19:16;19.23;;;8.32;;
35919;SDS011;36160;53.370;-6.196;2022-12-08T07:21:42;12.15;;;7.20;;
35919;SDS011;36160;53.370;-6.196;2022-12-08T07:24:08;20.58;;;8.60;;
35919;SDS011;36160;53.370;-6.196;2022-12-08T07:26:34;15.02;;;9.13;;
35919;SDS011;36160;53.370;-6.196;2022-12-08T07:28:59;20.00;;;8.60;;
35919;SDS011;36160;53.370;-6.196;2022-12-08T07:31:25;21.73;;;9.07;;
35919;SDS011;36160;53.370;-6.196;2022-12-08T07:33:52;14.93;;;9.48;;
35919;SDS011;36160;53.370;-6.196;2022-12-08T07:36:19;16.08;;;9.93;;
35919;SDS011;36160;53.370;-6.196;2022-12-08T07:38:46;15.95;;;7.43;;
35919;SDS011;36160;53.370;-6.196;2022-12-08T07:41:14;18.70;;;8.43;;
35919;SDS011;36160;53.370;-6.196;2022-12-08T07:43:44;18.83;;;8.55;;
35919;SDS011;36160;53.370;-6.196;2022-12-08T07:46:11;25.33;;;10.00;;
35919;SDS011;36160;53.370;-6.196;2022-12-08T07:48:37;17.73;;;7.80;;
35919;SDS011;36160;53.370;-6.196;2022-12-08T07:51:03;20.17;;;8.38;;
35919;SDS011;36160;53.370;-6.196;2022-12-08T07:53:29;20.50;;;8.88;;
35919;SDS011;36160;53.370;-6.196;2022-12-08T07:55:56;20.33;;;10.70;;
35919;SDS011;36160;53.370;-6.196;2022-12-08T07:58:22;19.27;;;9.18;;
35919;SDS011;36160;53.370;-6.196;2022-12-08T08:00:48;14.60;;;8.35;;
35919;SDS011;36160;53.370;-6.196;2022-12-08T08:03:16;13.57;;;8.18;;
35919;SDS011;36160;53.370;-6.196;2022-12-08T08:05:42;18.73;;;8.88;;
35919;SDS011;36160;53.370;-6.196;2022-12-08T08:08:13;19.73;;;8.40;;
35919;SDS011;36160;53.370;-6.196;2022-12-08T08:10:38;14.30;;;8.65;;
35919;SDS011;36160;53.370;-6.196;2022-12-08T08:13:04;22.88;;;11.32;;
35919;SDS011;36160;53.370;-6.196;2022-12-08T08:15:30;16.65;;;8.55;;
35919;SDS011;36160;53.370;-6.196;2022-12-08T08:17:56;20.23;;;9.25;;
35919;SDS011;36160;53.370;-6.196;2022-12-08T08:20:21;17.38;;;9.98;;
35919;SDS011;36160;53.370;-6.196;2022-12-08T08:22:48;19.42;;;8.75;;
35919;SDS011;36160;53.370;-6.196;2022-12-08T08:25:14;25.30;;;10.13;;
35919;SDS011;36160;53.370;-6.196;2022-12-08T08:27:41;15.90;;;8.85;;
35919;SDS011;36160;53.370;-6.196;2022-12-08T08:30:08;16.95;;;9.77;;
35919;SDS011;36160;53.370;-6.196;2022-12-08T08:32:35;16.98;;;9.48;;
35919;SDS011;36160;53.370;-6.196;2022-12-08T08:35:01;18.02;;;9.77;;
35919;SDS011;36160;53.370;-6.196;2022-12-08T08:37:27;19.30;;;9.32;;
35919;SDS011;36160;53.370;-6.196;2022-12-08T08:39:53;21.88;;;10.70;;
35919;SDS011;36160;53.370;-6.196;2022-12-08T08:42:19;19.08;;;9.07;;
35919;SDS011;36160;53.370;-6.196;2022-12-08T08:44:44;22.58;;;11.38;;
35919;SDS011;36160;53.370;-6.196;2022-12-08T08:47:10;23.38;;;11.18;;
35919;SDS011;36160;53.370;-6.196;2022-12-08T08:49:36;28.55;;;11.95;;
35919;SDS011;36160;53.370;-6.196;2022-12-08T08:52:02;24.52;;;11.68;;
35919;SDS011;36160;53.370;-6.196;2022-12-08T08:54:28;25.80;;;11.02;;
35919;SDS011;36160;53.370;-6.196;2022-12-08T08:56:55;20.77;;;11.80;;
35919;SDS011;36160;53.370;-6.196;2022-12-08T08:59:21;28.13;;;11.57;;
35919;SDS011;36160;53.370;-6.196;2022-12-08T09:01:47;30.00;;;12.10;;
35919;SDS011;36160;53.370;-6.196;2022-12-08T09:04:13;21.00;;;10.35;;
35919;SDS011;36160;53.370;-6.196;2022-12-08T09:06:38;20.85;;;11.43;;
35919;SDS011;36160;53.370;-6.196;2022-12-08T09:09:04;21.13;;;10.73;;
35919;SDS011;36160;53.370;-6.196;2022-12-08T09:11:31;20.92;;;11.18;;
35919;SDS011;36160;53.370;-6.196;2022-12-08T09:13:57;24.42;;;12.23;;
35919;SDS011;36160;53.370;-6.196;2022-12-08T09:16:22;18.85;;;10.32;;
35919;SDS011;36160;53.370;-6.196;2022-12-08T09:18:48;25.50;;;12.40;;
35919;SDS011;36160;53.370;-6.196;2022-12-08T09:21:15;18.55;;;10.77;;
35919;SDS011;36160;53.370;-6.196;2022-12-08T09:26:12;18.55;;;10.23;;
35919;SDS011;36160;53.370;-6.196;2022-12-08T09:28:38;17.58;;;10.43;;
35919;SDS011;36160;53.370;-6.196;2022-12-08T09:31:03;20.02;;;10.68;;
35919;SDS011;36160;53.370;-6.196;2022-12-08T09:33:29;25.13;;;11.25;;
35919;SDS011;36160;53.370;-6.196;2022-12-08T09:35:55;21.42;;;11.45;;
35919;SDS011;36160;53.370;-6.196;2022-12-08T09:38:21;26.05;;;10.82;;
35919;SDS011;36160;53.370;-6.196;2022-12-08T09:40:50;23.52;;;11.68;;
35919;SDS011;36160;53.370;-6.196;2022-12-08T09:45:49;19.08;;;10.85;;
35919;SDS011;36160;53.370;-6.196;2022-12-08T09:48:18;23.60;;;11.07;;
35919;SDS011;36160;53.370;-6.196;2022-12-08T09:50:54;19.60;;;10.70;;
35919;SDS011;36160;53.370;-6.196;2022-12-08T09:53:25;18.38;;;11.05;;
35919;SDS011;36160;53.370;-6.196;2022-12-08T09:56:02;23.00;;;10.57;;
35919;SDS011;36160;53.370;-6.196;2022-12-08T09:58:55;16.23;;;10.07;;
35919;SDS011;36160;53.370;-6.196;2022-12-08T10:01:26;18.80;;;10.07;;
35919;SDS011;36160;53.370;-6.196;2022-12-08T10:03:54;14.70;;;7.60;;
35919;SDS011;36160;53.370;-6.196;2022-12-08T10:06:24;14.85;;;8.20;;
35919;SDS011;36160;53.370;-6.196;2022-12-08T10:11:40;16.50;;;8.02;;
35919;SDS011;36160;53.370;-6.196;2022-12-08T10:14:20;16.35;;;9.07;;
35919;SDS011;36160;53.370;-6.196;2022-12-08T10:17:08;13.80;;;8.45;;
35919;SDS011;36160;53.370;-6.196;2022-12-08T10:19:46;22.25;;;8.38;;
35919;SDS011;36160;53.370;-6.196;2022-12-08T10:22:20;15.32;;;8.50;;
35919;SDS011;36160;53.370;-6.196;2022-12-08T10:24:51;44.63;;;9.45;;
35919;SDS011;36160;53.370;-6.196;2022-12-08T10:27:20;17.88;;;8.73;;
35919;SDS011;36160;53.370;-6.196;2022-12-08T10:29:46;9.40;;;6.28;;
35919;SDS011;36160;53.370;-6.196;2022-12-08T10:32:22;11.68;;;6.97;;
35919;SDS011;36160;53.370;-6.196;2022-12-08T10:37:35;12.20;;;6.07;;
35919;SDS011;36160;53.370;-6.196;2022-12-08T10:42:34;10.40;;;5.60;;
35919;SDS011;36160;53.370;-6.196;2022-12-08T10:45:25;8.55;;;5.15;;
35919;SDS011;36160;53.370;-6.196;2022-12-08T10:48:05;9.77;;;5.15;;
35919;SDS011;36160;53.370;-6.196;2022-12-08T10:50:58;7.75;;;4.25;;
35919;SDS011;36160;53.370;-6.196;2022-12-08T10:53:25;7.50;;;3.85;;
35919;SDS011;36160;53.370;-6.196;2022-12-08T11:01:16;10.20;;;3.88;;
35919;SDS011;36160;53.370;-6.196;2022-12-08T11:03:48;10.13;;;4.43;;
35919;SDS011;36160;53.370;-6.196;2022-12-08T11:06:18;10.20;;;6.07;;
35919;SDS011;36160;53.370;-6.196;2022-12-08T11:08:51;8.90;;;4.70;;
35919;SDS011;36160;53.370;-6.196;2022-12-08T11:11:18;10.82;;;6.57;;
35919;SDS011;36160;53.370;-6.196;2022-12-08T11:13:47;8.48;;;3.92;;
35919;SDS011;36160;53.370;-6.196;2022-12-08T11:16:15;9.10;;;4.18;;
35919;SDS011;36160;53.370;-6.196;2022-12-08T11:18:46;8.00;;;4.13;;
35919;SDS011;36160;53.370;-6.196;2022-12-08T11:21:20;6.20;;;4.32;;
35919;SDS011;36160;53.370;-6.196;2022-12-08T11:23:58;10.60;;;4.32;;
35919;SDS011;36160;53.370;-6.196;2022-12-08T11:26:42;13.75;;;4.63;;
35919;SDS011;36160;53.370;-6.196;2022-12-08T11:29:17;6.55;;;3.83;;
35919;SDS011;36160;53.370;-6.196;2022-12-08T11:31:44;10.32;;;4.72;;
35919;SDS011;36160;53.370;-6.196;2022-12-08T11:34:37;10.50;;;4.20;;
35919;SDS011;36160;53.370;-6.196;2022-12-08T11:37:38;10.55;;;5.10;;
35919;SDS011;36160;53.370;-6.196;2022-12-08T11:40:06;9.95;;;4.72;;
35919;SDS011;36160;53.370;-6.196;2022-12-08T11:42:59;6.78;;;3.85;;
35919;SDS011;36160;53.370;-6.196;2022-12-08T11:45:36;10.00;;;5.20;;
35919;SDS011;36160;53.370;-6.196;2022-12-08T11:50:40;6.07;;;4.60;;
35919;SDS011;36160;53.370;-6.196;2022-12-08T11:53:51;6.10;;;4.57;;
35919;SDS011;36160;53.370;-6.196;2022-12-08T11:55:59;7.00;;;5.35;;
35919;SDS011;36160;53.370;-6.196;2022-12-08T11:58:38;18.75;;;6.97;;
35919;SDS011;36160;53.370;-6.196;2022-12-08T12:01:12;8.15;;;4.38;;
35919;SDS011;36160;53.370;-6.196;2022-12-08T12:03:46;9.15;;;5.78;;
35919;SDS011;36160;53.370;-6.196;2022-12-08T12:09:03;9.90;;;4.50;;
35919;SDS011;36160;53.370;-6.196;2022-12-08T12:19:52;11.10;;;5.38;;
35919;SDS011;36160;53.370;-6.196;2022-12-08T12:22:19;11.27;;;4.40;;
35919;SDS011;36160;53.370;-6.196;2022-12-08T12:24:47;10.00;;;5.28;;
35919;SDS011;36160;53.370;-6.196;2022-12-08T12:27:33;9.27;;;5.30;;
35919;SDS011;36160;53.370;-6.196;2022-12-08T12:30:06;10.60;;;5.05;;
35919;SDS011;36160;53.370;-6.196;2022-12-08T12:32:41;9.07;;;4.68;;
35919;SDS011;36160;53.370;-6.196;2022-12-08T12:35:24;7.18;;;4.45;;
35919;SDS011;36160;53.370;-6.196;2022-12-08T12:37:55;11.30;;;4.85;;
35919;SDS011;36160;53.370;-6.196;2022-12-08T12:41:08;12.75;;;4.75;;
35919;SDS011;36160;53.370;-6.196;2022-12-08T12:43:35;11.32;;;4.82;;
35919;SDS011;36160;53.370;-6.196;2022-12-08T12:48:46;11.68;;;5.95;;
35919;SDS011;36160;53.370;-6.196;2022-12-08T12:54:22;19.30;;;6.43;;
35919;SDS011;36160;53.370;-6.196;2022-12-08T12:56:53;11.27;;;5.15;;
35919;SDS011;36160;53.370;-6.196;2022-12-08T12:59:46;8.85;;;4.93;;
35919;SDS011;36160;53.370;-6.196;2022-12-08T13:04:57;11.30;;;4.88;;
35919;SDS011;36160;53.370;-6.196;2022-12-08T13:07:36;11.45;;;4.18;;
35919;SDS011;36160;53.370;-6.196;2022-12-08T13:12:41;11.18;;;5.43;;
35919;SDS011;36160;53.370;-6.196;2022-12-08T13:15:15;22.70;;;10.50;;
35919;SDS011;36160;53.370;-6.196;2022-12-08T13:17:44;15.00;;;8.80;;
35919;SDS011;36160;53.370;-6.196;2022-12-08T13:20:22;13.48;;;5.20;;
35919;SDS011;36160;53.370;-6.196;2022-12-08T13:22:56;7.75;;;3.50;;
35919;SDS011;36160;53.370;-6.196;2022-12-08T13:30:59;10.93;;;5.50;;
35919;SDS011;36160;53.370;-6.196;2022-12-08T13:33:38;9.93;;;4.10;;
35919;SDS011;36160;53.370;-6.196;2022-12-08T13:38:33;14.90;;;6.25;;
35919;SDS011;36160;53.370;-6.196;2022-12-08T13:41:02;8.15;;;3.40;;
35919;SDS011;36160;53.370;-6.196;2022-12-08T13:43:54;5.97;;;3.13;;
35919;SDS011;36160;53.370;-6.196;2022-12-08T13:46:40;7.32;;;2.65;;
35919;SDS011;36160;53.370;-6.196;2022-12-08T13:49:08;8.13;;;2.53;;
35919;SDS011;36160;53.370;-6.196;2022-12-08T13:51:43;5.65;;;2.20;;
35919;SDS011;36160;53.370;-6.196;2022-12-08T13:56:43;9.68;;;2.25;;
35919;SDS011;36160;53.370;-6.196;2022-12-08T13:59:22;4.30;;;2.53;;
35919;SDS011;36160;53.370;-6.196;2022-12-08T14:01:52;3.22;;;2.38;;
35919;SDS011;36160;53.370;-6.196;2022-12-08T14:04:20;3.35;;;2.28;;
35919;SDS011;36160;53.370;-6.196;2022-12-08T14:06:48;5.20;;;2.35;;
35919;SDS011;36160;53.370;-6.196;2022-12-08T14:09:21;6.78;;;3.00;;
35919;SDS011;36160;53.370;-6.196;2022-12-08T14:11:50;6.47;;;3.25;;
35919;SDS011;36160;53.370;-6.196;2022-12-08T14:16:54;6.65;;;2.72;;
35919;SDS011;36160;53.370;-6.196;2022-12-08T14:19:23;5.50;;;2.30;;
35919;SDS011;36160;53.370;-6.196;2022-12-08T14:21:57;6.85;;;3.08;;
35919;SDS011;36160;53.370;-6.196;2022-12-08T14:26:59;4.53;;;2.80;;
35919;SDS011;36160;53.370;-6.196;2022-12-08T14:32:02;10.52;;;5.45;;
35919;SDS011;36160;53.370;-6.196;2022-12-08T14:34:33;10.20;;;2.75;;
35919;SDS011;36160;53.370;-6.196;2022-12-08T14:37:05;4.88;;;2.25;;
35919;SDS011;36160;53.370;-6.196;2022-12-08T14:39:35;6.53;;;2.50;;
35919;SDS011;36160;53.370;-6.196;2022-12-08T14:42:01;4.85;;;2.15;;
35919;SDS011;36160;53.370;-6.196;2022-12-08T14:44:29;3.60;;;2.08;;
35919;SDS011;36160;53.370;-6.196;2022-12-08T14:47:03;24.75;;;7.95;;
35919;SDS011;36160;53.370;-6.196;2022-12-08T14:49:31;2.95;;;2.30;;
35919;SDS011;36160;53.370;-6.196;2022-12-08T14:51:59;21.38;;;9.35;;
35919;SDS011;36160;53.370;-6.196;2022-12-08T14:54:26;25.08;;;9.05;;
35919;SDS011;36160;53.370;-6.196;2022-12-08T14:56:55;11.10;;;4.60;;
35919;SDS011;36160;53.370;-6.196;2022-12-08T14:59:32;14.98;;;5.85;;
35919;SDS011;36160;53.370;-6.196;2022-12-08T15:04:47;9.63;;;3.67;;
35919;SDS011;36160;53.370;-6.196;2022-12-08T15:07:20;14.68;;;4.15;;
35919;SDS011;36160;53.370;-6.196;2022-12-08T15:09:56;11.60;;;6.78;;
35919;SDS011;36160;53.370;-6.196;2022-12-08T15:15:24;18.25;;;8.88;;
35919;SDS011;36160;53.370;-6.196;2022-12-08T15:20:41;8.60;;;3.50;;
35919;SDS011;36160;53.370;-6.196;2022-12-08T15:23:16;8.52;;;3.65;;
35919;SDS011;36160;53.370;-6.196;2022-12-08T15:25:45;10.23;;;4.45;;
35919;SDS011;36160;53.370;-6.196;2022-12-08T15:28:11;11.23;;;5.28;;
35919;SDS011;36160;53.370;-6.196;2022-12-08T15:30:38;10.77;;;5.43;;
35919;SDS011;36160;53.370;-6.196;2022-12-08T15:33:03;11.38;;;4.25;;
35919;SDS011;36160;53.370;-6.196;2022-12-08T15:35:29;10.48;;;3.90;;
35919;SDS011;36160;53.370;-6.196;2022-12-08T15:37:55;9.07;;;3.35;;
35919;SDS011;36160;53.370;-6.196;2022-12-08T15:40:21;14.68;;;4.57;;
35919;SDS011;36160;53.370;-6.196;2022-12-08T15:42:47;9.30;;;3.75;;
35919;SDS011;36160;53.370;-6.196;2022-12-08T15:45:14;10.02;;;4.97;;
35919;SDS011;36160;53.370;-6.196;2022-12-08T15:47:41;10.05;;;5.53;;
35919;SDS011;36160;53.370;-6.196;2022-12-08T15:50:20;16.52;;;6.18;;
35919;SDS011;36160;53.370;-6.196;2022-12-08T15:52:48;14.73;;;6.55;;
35919;SDS011;36160;53.370;-6.196;2022-12-08T15:55:15;17.25;;;6.97;;
35919;SDS011;36160;53.370;-6.196;2022-12-08T15:57:43;24.38;;;9.50;;
35919;SDS011;36160;53.370;-6.196;2022-12-08T16:00:23;21.70;;;11.57;;
35919;SDS011;36160;53.370;-6.196;2022-12-08T16:02:51;21.23;;;11.63;;
35919;SDS011;36160;53.370;-6.196;2022-12-08T16:05:17;18.33;;;8.25;;
35919;SDS011;36160;53.370;-6.196;2022-12-08T16:07:43;19.10;;;9.07;;
35919;SDS011;36160;53.370;-6.196;2022-12-08T16:10:13;18.98;;;7.78;;
35919;SDS011;36160;53.370;-6.196;2022-12-08T16:12:42;18.23;;;7.88;;
35919;SDS011;36160;53.370;-6.196;2022-12-08T16:15:27;13.88;;;8.30;;
35919;SDS011;36160;53.370;-6.196;2022-12-08T16:22:46;23.02;;;8.63;;
35919;SDS011;36160;53.370;-6.196;2022-12-08T16:25:13;20.77;;;9.85;;
35919;SDS011;36160;53.370;-6.196;2022-12-08T16:27:39;24.48;;;9.23;;